Latest Weather Observations for Longreach

IDQ60801

Issued at 10:05 pm EST Monday 24 November 2014 (issued every 30 minutes, with the page automatically refreshed every 10 minutes)

About weather observations | Map of weather stations | Latest weather observations for QLD | Other Formats
Station Details ID: 036031 Name: LONGREACH AERO Lat: -23.44 Lon: 144.28 Height: 192.2 m
Data from the previous 72 hours. | See also: Recent months at Longreach
Date/Time
EST
Temp
°C
App
Temp
°C
Dew
Point
Rel
Hum
%
Delta-T
°C
Wind Press
QNH
hPa
Press
MSL
hPa
Rain
since 9 am
mm
Dir
 
Spd
km/h
Gust
km/h
Spd
kts
Gust
kts
24/09:30pm 31.4 27.3 4.6 18 14.1 NE 15 17 8 9 1010.3 - 0.0
24/09:00pm 32.1 27.7 5.0 18 14.4 ENE 17 17 9 9 1010.1 1008.8 0.0
24/08:30pm 31.5 27.4 6.4 20 13.6 ENE 17 17 9 9 1009.7 - 0.0
24/08:00pm 31.5 28.0 7.4 22 13.3 ENE 15 17 8 9 1009.4 - 0.0
24/07:30pm 33.2 30.1 7.2 20 14.4 ENE 13 15 7 8 1009.2 - 0.0
24/07:00pm 34.6 32.0 7.8 19 15.1 ENE 11 11 6 6 1008.9 - 0.0
24/06:30pm 36.7 34.1 7.6 17 16.5 ENE 11 17 6 9 1008.6 - 0.0
24/06:00pm 37.8 34.0 5.7 14 17.8 ENE 15 30 8 16 1008.2 1007.0 0.0
24/05:30pm 38.4 33.8 5.6 13 18.2 E 19 28 10 15 1007.8 - 0.0
24/05:00pm 39.3 35.1 5.5 12 18.8 NNE 17 22 9 12 1007.7 - 0.0
24/04:30pm 39.0 34.2 5.6 13 18.6 NNE 20 28 11 15 1007.6 - 0.0
24/04:00pm 39.1 34.8 6.8 14 18.3 ENE 19 32 10 17 1007.6 - 0.0
24/03:30pm 38.9 35.8 7.1 14 18.1 ENE 13 20 7 11 1007.8 - 0.0
24/03:00pm 38.5 34.6 8.5 16 17.4 E 19 35 10 19 1008.3 1007.1 0.0
24/02:30pm 38.8 35.0 7.5 15 17.9 NNE 17 26 9 14 1009.0 - 0.0
24/02:00pm 37.7 34.9 11.2 20 15.9 NNE 17 24 9 13 1009.6 - 0.0
24/01:30pm 38.3 35.9 8.6 16 17.2 N 11 32 6 17 1010.3 - 0.0
24/01:00pm 38.4 34.3 10.0 18 16.8 NNE 22 33 12 18 1010.9 - 0.0
24/12:30pm 37.1 34.5 12.0 22 15.2 N 17 26 9 14 1011.5 - 0.0
24/12:00pm 36.6 32.6 11.7 22 15.0 NE 24 39 13 21 1012.0 1010.8 0.0
24/11:30am 35.8 33.6 14.3 27 13.4 NE 19 32 10 17 1012.5 - 0.0
24/11:00am 35.0 31.9 14.4 29 12.8 NNE 24 37 13 20 1013.0 - 0.0
24/10:30am 34.5 31.5 14.8 30 12.3 N 24 28 13 15 1013.3 - 0.0
24/10:00am 34.5 31.3 15.2 31 12.1 NNE 26 39 14 21 1013.5 - 0.0
24/09:30am 33.0 29.8 15.2 34 11.1 NNE 26 35 14 19 1013.8 - 0.0
24/09:00am 31.5 28.1 15.7 38 9.9 NNE 28 35 15 19 1013.8 1012.6 0.6
24/08:30am 30.6 27.6 15.9 41 9.2 NNE 26 33 14 18 1013.8 - 0.6
24/08:00am 29.8 26.9 16.0 43 8.6 NNE 26 32 14 17 1013.8 - 0.6
24/07:30am 29.4 26.0 15.9 44 8.4 NNE 28 35 15 19 1013.5 - 0.6
24/07:00am 27.9 25.3 16.0 48 7.4 NNE 24 32 13 17 1013.0 - 0.6
24/06:30am 27.1 24.1 15.8 50 7.0 NE 26 33 14 18 1012.5 - 0.6
24/06:00am 26.0 23.9 16.1 54 6.1 NE 22 28 12 15 1012.2 1011.0 0.6
24/05:30am 25.8 23.7 16.1 55 6.0 NE 22 26 12 14 1012.0 - 0.6
24/05:00am 25.6 24.3 15.8 54 6.0 NNE 17 20 9 11 1011.7 - 0.6
24/04:30am 25.5 23.7 14.5 50 6.6 NNE 17 19 9 10 1011.1 - 0.6
24/04:00am 25.9 22.7 11.9 41 8.1 NE 20 26 11 14 1010.9 - 0.6
24/03:30am 26.9 22.5 10.5 35 9.3 NE 24 28 13 15 1010.6 - 0.6
24/03:00am 26.5 24.0 12.3 41 8.3 E 17 19 9 10 1010.6 1009.3 0.6
24/02:30am 26.4 24.2 13.4 44 7.7 E 17 20 9 11 1010.5 - 0.6
24/02:00am 26.2 25.0 15.0 50 6.8 E 15 19 8 10 1010.6 - 0.6
24/01:30am 25.8 24.7 17.4 59 5.3 E 19 20 10 11 1010.7 - 0.6
24/01:00am 26.6 26.2 18.0 59 5.5 ESE 17 19 9 10 1010.9 - 0.6
24/12:30am 27.9 27.9 17.1 51 6.8 SE 13 15 7 8 1011.2 - 0.6
24/12:00am 28.1 27.9 17.6 53 6.7 ESE 15 17 8 9 1011.4 1010.1 0.6
 
Date/Time
EST
Temp
°C
App
Temp
°C
Dew
Point
Rel
Hum
%
Delta-T
°C
Wind Press
QNH
hPa
Press
MSL
hPa
Rain
since 9 am
mm
Dir
 
Spd
km/h
Gust
km/h
Spd
kts
Gust
kts
23/11:30pm 27.6 27.6 17.3 53 6.5 ENE 13 13 7 7 1011.6 - 0.6
23/11:00pm 28.3 29.5 19.1 57 6.0 E 11 13 6 7 1011.9 - 0.6
23/10:30pm 29.2 29.8 17.8 50 7.3 ESE 11 13 6 7 1011.8 - 0.6
23/10:00pm 29.7 30.3 16.7 45 8.2 E 9 11 5 6 1011.5 - 0.6
23/09:30pm 30.0 29.9 16.1 43 8.7 NE 11 11 6 6 1011.2 - 0.6
23/09:00pm 30.9 32.0 17.9 45 8.4 ENE 9 11 5 6 1010.9 1009.6 0.6
23/08:30pm 33.3 32.8 12.8 28 12.4 NNE 7 9 4 5 1010.3 - 0.6
23/08:01pm 34.1 32.3 13.3 28 12.7 N 15 20 8 11 1010.2 - 0.6
23/07:54pm 34.1 32.3 13.3 28 12.7 N 15 20 8 11 1010.2 - 0.6
23/07:30pm 33.7 26.3 11.2 25 13.3 NNE 41 52 22 28 1010.3 - 0.6
23/07:27pm 33.7 26.1 11.7 26 13.1 N 43 52 23 28 1010.2 - 0.6
23/07:17pm 33.8 29.0 11.6 26 13.2 NE 28 46 15 25 1010.3 - 0.6
23/07:00pm 34.0 34.7 17.9 38 10.5 SE 11 11 6 6 1009.9 - 0.6
23/06:30pm 35.3 35.5 16.8 33 11.9 ESE 11 13 6 7 1009.5 - 0.6
23/06:00pm 35.7 36.3 17.6 34 11.8 ESE 11 13 6 7 1009.2 1008.0 0.6
23/05:30pm 35.6 35.1 17.7 34 11.7 E 17 24 9 13 1008.8 - 0.6
23/05:00pm 37.2 36.9 14.4 25 14.3 SE 9 13 5 7 1008.6 - 0.4
23/04:30pm 36.1 36.7 17.6 33 12.1 SE 11 19 6 10 1009.0 - 0.4
23/04:00pm 34.6 35.9 19.3 40 10.2 S 11 15 6 8 1009.1 - 0.4
23/03:36pm 31.9 27.8 17.3 41 9.4 ESE 35 54 19 29 1009.5 - 0.0
23/03:26pm 33.3 29.0 15.9 35 11.0 ESE 33 48 18 26 1009.7 - 0.0
23/03:00pm 38.9 36.9 12.8 21 16.1 E 15 20 8 11 1010.1 1008.8 0.0
23/02:30pm 39.0 36.0 13.7 22 15.8 NE 22 28 12 15 1010.4 - 0.0
23/02:00pm 39.8 38.8 14.5 22 16.0 NE 13 28 7 15 1010.9 - 0.0
23/01:30pm 38.4 38.0 15.1 25 14.8 NNW 11 19 6 10 1011.4 - 0.0
23/01:00pm 38.5 36.6 14.1 23 15.3 NNE 17 26 9 14 1011.9 - 0.0
23/12:30pm 38.0 35.7 14.7 25 14.7 NNE 20 30 11 16 1012.2 - 0.0
23/12:00pm 37.5 33.6 15.5 27 14.0 NNE 30 33 16 18 1012.6 1011.4 0.0
23/11:30am 37.2 34.1 15.7 28 13.7 NE 26 41 14 22 1013.0 - 0.0
23/11:00am 35.7 31.6 15.9 30 12.6 NE 32 37 17 20 1013.5 - 0.0
23/10:30am 35.6 31.6 16.2 31 12.4 NNE 32 41 17 22 1013.9 - 0.0
23/10:00am 34.7 30.8 16.4 33 11.7 NE 32 41 17 22 1014.1 - 0.0
23/09:30am 32.2 29.4 17.4 41 9.5 NE 28 33 15 18 1014.2 - 0.0
23/09:00am 30.6 28.0 17.7 46 8.3 NE 28 37 15 20 1014.3 1013.1 0.6
23/08:30am 30.1 27.6 18.0 48 7.8 NE 28 35 15 19 1014.3 - 0.6
23/08:00am 28.7 28.2 17.9 52 6.9 NE 17 24 9 13 1014.1 - 0.6
23/07:30am 27.2 27.0 17.6 55 6.1 ENE 15 19 8 10 1013.8 - 0.6
23/07:00am 25.9 26.2 18.7 64 4.6 E 15 17 8 9 1013.5 - 0.6
23/06:30am 26.0 26.0 18.2 62 5.0 ESE 15 20 8 11 1013.0 - 0.6
23/06:00am 26.2 25.7 17.9 60 5.3 E 17 24 9 13 1012.4 1011.2 0.6
23/05:30am 26.1 27.3 18.3 62 5.0 SSE 9 13 5 7 1011.9 - 0.6
23/05:00am 25.2 27.1 19.8 72 3.5 W 9 11 5 6 1011.1 - 0.6
23/04:30am 25.4 27.0 19.2 68 4.0 SSW 9 13 5 7 1010.7 - 0.6
23/04:00am 25.0 27.3 19.4 71 3.6 S 6 9 3 5 1011.4 - 0.6
23/03:30am 25.3 26.7 18.6 66 4.3 WSW 9 13 5 7 1011.0 - 0.6
23/03:00am 25.7 23.7 17.5 60 5.2 W 24 32 13 17 1010.4 1009.1 0.6
23/02:30am 26.0 24.8 17.6 60 5.3 W 20 30 11 16 1010.1 - 0.6
23/02:00am 26.6 21.1 16.7 54 6.2 W 41 52 22 28 1010.5 - 0.6
23/01:50am 28.7 24.9 15.8 45 8.0 W 30 48 16 26 1010.6 - 0.4
23/01:30am 30.3 25.3 13.4 35 10.2 S 32 39 17 21 1010.6 - 0.2
23/01:22am 29.7 24.3 13.8 37 9.6 S 35 39 19 21 1010.7 - 0.2
23/01:00am 29.9 24.1 13.9 37 9.7 SE 37 46 20 25 1011.0 - 0.2
23/12:30am 26.8 22.4 16.7 54 6.3 SE 35 46 19 25 1012.1 - 0.2
23/12:17am 26.2 22.9 17.9 60 5.3 SSE 32 50 17 27 1012.5 - 0.0
23/12:00am 27.7 23.9 16.7 51 6.9 SE 32 37 17 20 1013.0 1011.8 0.0
 
Date/Time
EST
Temp
°C
App
Temp
°C
Dew
Point
Rel
Hum
%
Delta-T
°C
Wind Press
QNH
hPa
Press
MSL
hPa
Rain
since 9 am
mm
Dir
 
Spd
km/h
Gust
km/h
Spd
kts
Gust
kts
22/11:30pm 28.7 25.5 16.2 46 7.8 S 28 37 15 20 1013.8 - 0.0
22/11:00pm 29.8 26.3 16.4 44 8.4 SSE 30 37 16 20 1014.1 - 0.0
22/10:56pm 29.9 26.1 16.6 44 8.4 SE 32 46 17 25 1014.0 - 0.0
22/10:30pm 31.8 29.6 14.4 34 10.7 SSW 19 28 10 15 1012.8 - 0.0
22/10:00pm 33.0 30.0 13.7 31 11.8 S 22 32 12 17 1012.1 - 0.0
22/09:30pm 31.3 29.3 15.4 38 9.9 S 20 43 11 23 1011.6 - 0.0
22/09:00pm 31.6 28.4 15.4 37 10.1 E 26 32 14 17 1010.8 1009.5 0.0
22/08:58pm 31.9 29.0 15.0 36 10.5 E 24 32 13 17 1010.7 - 0.0
22/08:39pm 32.7 26.6 14.2 32 11.4 ESE 39 59 21 32 1010.3 - 0.0
22/08:33pm 36.2 31.1 10.5 21 15.2 E 28 41 15 22 1010.0 - 0.0
22/08:30pm 36.5 33.2 9.6 19 15.7 ENE 17 20 9 11 1009.9 - 0.0
22/08:00pm 36.6 33.0 9.8 19 15.7 NNE 19 22 10 12 1008.9 - 0.0
22/07:30pm 36.9 33.8 8.9 18 16.2 NNE 15 17 8 9 1008.4 - 0.0
22/07:00pm 37.9 34.9 9.4 18 16.7 NNE 15 17 8 9 1008.1 - 0.0
22/06:30pm 38.8 35.1 9.4 17 17.3 N 19 24 10 13 1007.6 - 0.0
22/06:00pm 40.1 37.0 9.0 15 18.3 NE 15 20 8 11 1007.1 1005.9 0.0
22/05:30pm 41.2 36.7 8.4 14 19.2 N 22 28 12 15 1006.9 - 0.0
22/05:00pm 41.7 37.0 9.2 14 19.2 NNE 24 33 13 18 1006.8 - 0.0
22/04:30pm 41.8 38.1 8.1 13 19.7 NNE 17 26 9 14 1007.0 - 0.0
22/04:00pm 41.5 37.6 8.7 14 19.3 NE 19 28 10 15 1007.2 - 0.0
22/03:30pm 41.9 36.4 9.2 14 19.4 N 28 33 15 18 1007.7 - 0.0
22/03:28pm 41.2 35.7 9.3 15 18.9 N 28 33 15 18 1007.7 - 0.0
22/03:00pm 41.4 40.4 10.9 16 18.5 N 7 15 4 8 1008.1 1006.9 0.0
22/02:30pm 40.9 37.9 9.3 15 18.7 NE 15 22 8 12 1008.6 - 0.0
22/02:00pm 40.8 38.4 10.0 16 18.4 NW 13 22 7 12 1009.1 - 0.0
22/01:30pm 40.6 39.3 11.1 17 17.9 NW 9 15 5 8 1009.5 - 0.0
22/01:00pm 40.3 37.9 9.9 16 18.1 NNE 13 20 7 11 1010.2 - 0.0
22/12:30pm 40.0 37.7 10.5 17 17.7 NNW 13 19 7 10 1010.7 - 0.0
22/12:00pm 39.2 36.0 9.8 17 17.4 N 17 28 9 15 1011.1 1009.8 0.0
22/11:30am 38.9 35.3 10.4 18 17.0 NNW 20 30 11 16 1011.6 - 0.0
22/11:00am 38.5 35.2 11.0 19 16.5 N 19 28 10 15 1011.9 - 0.0
22/10:30am 37.7 35.2 12.3 22 15.5 NW 17 26 9 14 1012.1 - 0.0
22/10:00am 36.6 34.7 11.9 22 14.9 W 13 19 7 10 1012.2 - 0.0
22/09:30am 35.5 33.0 12.4 24 14.0 NW 17 28 9 15 1012.4 - 0.0
22/09:00am 34.2 32.1 12.5 27 13.1 NW 15 22 8 12 1012.7 1011.5 0.0
22/08:30am 34.0 32.0 12.6 27 12.9 NW 15 20 8 11 1012.5 - 0.0
22/08:00am 32.8 30.0 12.7 29 12.1 NNW 19 26 10 14 1012.4 - 0.0
22/07:30am 31.9 30.9 13.4 32 11.2 N 11 13 6 7 1012.3 - 0.0
22/07:00am 30.5 29.6 13.6 35 10.2 N 11 13 6 7 1012.1 - 0.0
22/06:30am 28.8 26.9 13.0 37 9.4 NNE 15 19 8 10 1012.0 - 0.0
22/06:00am 26.9 26.0 12.6 41 8.4 ENE 9 13 5 7 1011.8 1010.6 0.0
22/05:30am 26.1 27.0 12.8 43 7.8 CALM 0 6 0 3 1011.4 - 0.0
22/05:00am 26.0 25.6 12.9 44 7.7 NNE 7 9 4 5 1010.9 - 0.0
22/04:30am 27.0 25.3 12.3 40 8.6 NE 13 15 7 8 1010.6 - 0.0
22/04:00am 27.5 25.8 12.3 39 8.9 NNE 13 15 7 8 1010.6 - 0.0
22/03:30am 28.2 26.7 13.1 39 9.0 NNE 13 15 7 8 1010.1 - 0.0
22/03:00am 29.9 28.4 13.0 35 10.1 NE 13 19 7 10 1010.0 1008.7 0.0
22/02:30am 29.4 26.4 12.1 34 10.2 E 19 20 10 11 1009.6 - 0.0
22/02:00am 28.6 28.0 12.3 36 9.6 N 7 11 4 6 1009.3 - 0.0
22/01:30am 29.1 28.7 13.0 37 9.6 NE 7 9 4 5 1009.6 - 0.0
22/01:00am 29.2 28.8 13.1 37 9.6 N 7 9 4 5 1009.9 - 0.0
22/12:30am 30.0 29.7 13.4 36 10.0 W 7 9 4 5 1010.1 - 0.0
22/12:00am 30.4 29.7 13.1 34 10.4 N 9 11 5 6 1010.1 1008.8 0.0
 
Date/Time
EST
Temp
°C
App
Temp
°C
Dew
Point
Rel
Hum
%
Delta-T
°C
Wind Press
QNH
hPa
Press
MSL
hPa
Rain
since 9 am
mm
Dir
 
Spd
km/h
Gust
km/h
Spd
kts
Gust
kts
21/11:30pm 31.4 31.2 14.7 36 10.3 NNE 9 11 5 6 1010.6 - 0.0
21/11:00pm 32.5 30.2 13.0 30 11.8 ENE 17 20 9 11 1010.4 - 0.0
21/10:30pm 33.7 31.7 12.7 28 12.7 N 15 19 8 10 1010.4 - 0.0

Other Formats:

Comma delimited format used in spreadsheet applications
http://www.bom.gov.au/fwo/IDQ60801/IDQ60801.94346.axf

JavaScript Object Notation format (JSON) in row-major order
http://www.bom.gov.au/fwo/IDQ60801/IDQ60801.94346.json